createdAt,value
2022-08-07T00:04:06.705Z,18.50
2022-08-07T00:09:17.134Z,18.50
2022-08-07T00:14:30.326Z,18.40
2022-08-07T00:20:00.109Z,18.30
2022-08-07T00:24:54.357Z,18.30
2022-08-07T00:29:56.141Z,18.20
2022-08-07T00:34:58.431Z,18.20
2022-08-07T00:40:00.279Z,18.20
2022-08-07T00:45:02.443Z,18.20
2022-08-07T00:50:21.486Z,18.10
2022-08-07T00:56:00.185Z,18.00
2022-08-07T01:00:54.282Z,18.00
2022-08-07T01:05:56.657Z,18.00
2022-08-07T01:10:58.530Z,18.10
2022-08-07T01:16:30.349Z,18.20
2022-08-07T01:21:33.119Z,18.20
2022-08-07T01:26:39.381Z,18.00
2022-08-07T01:31:46.179Z,18.00
2022-08-07T01:36:57.923Z,17.90
2022-08-07T01:42:36.919Z,17.90
2022-08-07T01:48:29.674Z,17.80
2022-08-07T01:52:54.906Z,17.70
2022-08-07T01:58:05.858Z,17.60
2022-08-07T02:03:26.460Z,17.50
2022-08-07T02:08:40.409Z,17.40
2022-08-07T02:13:56.480Z,17.30
2022-08-07T02:19:05.784Z,17.30
2022-08-07T02:24:29.923Z,17.20
2022-08-07T02:29:33.060Z,17.20
2022-08-07T02:34:48.793Z,17.10
2022-08-07T02:40:09.187Z,17.10
2022-08-07T02:45:58.635Z,17.00
2022-08-07T02:50:46.122Z,16.90
2022-08-07T02:56:04.446Z,16.90
2022-08-07T03:01:18.689Z,16.90
2022-08-07T03:06:25.833Z,16.90
2022-08-07T03:11:38.588Z,16.90
2022-08-07T03:16:43.169Z,16.90
2022-08-07T03:21:50.604Z,16.80
2022-08-07T03:26:58.610Z,16.80
2022-08-07T03:32:04.559Z,16.70
2022-08-07T03:37:12.408Z,16.70
2022-08-07T03:42:18.924Z,16.70
2022-08-07T03:47:23.039Z,16.70
2022-08-07T03:52:28.123Z,16.70
2022-08-07T03:58:33.725Z,16.50
2022-08-07T04:02:57.841Z,16.60
2022-08-07T04:08:09.523Z,16.60
2022-08-07T04:13:15.383Z,16.70
2022-08-07T04:18:58.220Z,16.80
2022-08-07T04:23:43.920Z,16.80
2022-08-07T04:29:07.668Z,16.80
2022-08-07T04:34:16.586Z,16.80
2022-08-07T04:39:25.427Z,16.80
2022-08-07T04:44:28.890Z,16.90
2022-08-07T04:50:22.672Z,17.00
2022-08-07T04:58:13.687Z,17.80
2022-08-07T05:01:30.204Z,20.10
2022-08-07T05:06:51.805Z,21.50
2022-08-07T05:12:02.320Z,22.30
2022-08-07T05:17:11.733Z,23.10
2022-08-07T05:22:26.766Z,23.90
2022-08-07T05:28:02.894Z,24.40
2022-08-07T05:32:57.022Z,24.90
2022-08-07T05:38:09.090Z,25.50
2022-08-07T05:43:13.373Z,25.80
2022-08-07T05:48:19.570Z,26.00
2022-08-07T05:54:13.096Z,27.10
2022-08-07T05:58:52.715Z,26.00
2022-08-07T06:04:01.247Z,25.80
2022-08-07T06:09:10.950Z,26.10
2022-08-07T06:14:21.021Z,26.10
2022-08-07T06:19:57.591Z,25.70
2022-08-07T06:24:58.391Z,26.20
2022-08-07T06:30:04.181Z,25.80
2022-08-07T06:35:17.733Z,26.10
2022-08-07T06:40:21.297Z,26.80
2022-08-07T06:45:27.883Z,27.40
2022-08-07T06:50:39.656Z,27.00
2022-08-07T06:56:00.451Z,26.80
2022-08-07T07:01:09.183Z,27.80
2022-08-07T07:06:11.651Z,28.70
2022-08-07T07:12:09.131Z,27.50
2022-08-07T07:16:49.550Z,29.10
2022-08-07T07:22:04.909Z,30.00
2022-08-07T07:27:16.307Z,29.70
2022-08-07T07:32:19.513Z,29.30
2022-08-07T07:37:44.517Z,29.10
2022-08-07T07:42:54.223Z,30.50
2022-08-07T07:47:59.041Z,31.00
2022-08-07T07:53:02.274Z,30.60
2022-08-07T07:58:04.925Z,29.90
2022-08-07T08:03:17.077Z,29.60
2022-08-07T08:08:39.410Z,29.20
2022-08-07T08:13:54.165Z,28.60
2022-08-07T08:19:00.463Z,27.60
2022-08-07T08:24:45.730Z,28.70
2022-08-07T08:30:03.765Z,28.50
2022-08-07T08:35:08.373Z,28.60
2022-08-07T08:40:23.395Z,29.00
2022-08-07T08:46:01.702Z,28.60
2022-08-07T08:51:49.717Z,28.90
2022-08-07T08:56:51.156Z,28.70
2022-08-07T09:02:36.567Z,29.30
2022-08-07T09:08:04.761Z,28.50
2022-08-07T09:13:37.969Z,28.80
2022-08-07T09:18:52.898Z,28.90
2022-08-07T09:24:32.366Z,28.60
2022-08-07T09:30:04.152Z,28.10
2022-08-07T09:36:01.030Z,27.80
2022-08-07T09:41:15.518Z,28.20
2022-08-07T09:47:52.419Z,28.00
2022-08-07T09:52:34.208Z,29.50
2022-08-07T09:57:52.277Z,29.60
2022-08-07T10:04:05.432Z,29.20
2022-08-07T10:08:49.724Z,29.60
2022-08-07T10:14:23.091Z,29.00
2022-08-07T10:20:00.624Z,29.90
2022-08-07T10:25:42.895Z,29.60
2022-08-07T10:31:17.737Z,30.60
2022-08-07T10:36:47.568Z,29.60
2022-08-07T10:42:09.753Z,30.60
2022-08-07T10:47:53.279Z,31.10
2022-08-07T10:53:26.407Z,30.80
2022-08-07T10:59:21.188Z,31.20
2022-08-07T11:04:49.782Z,31.00
2022-08-07T11:10:08.553Z,30.70
2022-08-07T11:15:18.014Z,31.70
2022-08-07T11:20:41.580Z,32.00
2022-08-07T11:25:53.120Z,31.70
2022-08-07T11:30:59.410Z,30.90
2022-08-07T11:36:20.400Z,31.10
2022-08-07T11:42:01.714Z,31.00
2022-08-07T11:47:22.745Z,30.70
2022-08-07T11:52:47.216Z,30.50
2022-08-07T11:58:02.799Z,30.50
2022-08-07T12:03:44.763Z,29.50
2022-08-07T12:09:04.049Z,30.60
2022-08-07T12:14:21.200Z,31.00
2022-08-07T12:20:02.781Z,30.50
2022-08-07T12:26:05.799Z,30.70
2022-08-07T12:31:17.299Z,30.60
2022-08-07T12:36:33.526Z,31.60
2022-08-07T12:41:49.477Z,31.00
2022-08-07T12:47:21.757Z,32.30
2022-08-07T12:52:46.436Z,32.30
2022-08-07T12:58:00.758Z,31.80
2022-08-07T13:03:27.458Z,31.20
2022-08-07T13:08:59.783Z,32.00
2022-08-07T13:14:24.346Z,31.10
2022-08-07T13:19:52.183Z,31.10
2022-08-07T13:25:00.505Z,30.90
2022-08-07T13:30:19.535Z,31.20
2022-08-07T13:35:59.490Z,31.30
2022-08-07T13:41:12.512Z,31.90
2022-08-07T13:46:24.855Z,31.90
2022-08-07T13:52:22.783Z,31.30
2022-08-07T13:56:59.896Z,31.40
2022-08-07T14:02:10.220Z,31.70
2022-08-07T14:07:13.347Z,31.80
2022-08-07T14:12:54.162Z,31.90
2022-08-07T14:18:27.367Z,31.90
2022-08-07T14:23:31.351Z,31.40
2022-08-07T14:28:59.076Z,31.40
2022-08-07T14:34:03.756Z,31.60
2022-08-07T14:39:12.478Z,30.80
2022-08-07T14:44:33.703Z,31.30
2022-08-07T14:49:56.718Z,31.30
2022-08-07T14:55:00.576Z,30.80
2022-08-07T15:00:06.888Z,31.20
2022-08-07T15:05:20.576Z,31.20
2022-08-07T15:10:29.820Z,31.10
2022-08-07T15:21:44.378Z,31.70
2022-08-07T15:26:47.236Z,31.10
2022-08-07T15:31:58.144Z,31.10
2022-08-07T15:37:07.041Z,30.60
2022-08-07T15:42:46.534Z,30.40
2022-08-07T15:48:01.173Z,30.00
2022-08-07T15:53:17.091Z,29.70
2022-08-07T15:58:38.538Z,29.80
2022-08-07T16:03:46.349Z,29.40
2022-08-07T16:08:49.883Z,29.00
2022-08-07T16:14:09.247Z,29.10
2022-08-07T16:19:41.945Z,28.90
2022-08-07T16:24:52.707Z,28.70
2022-08-07T16:30:31.579Z,28.80
2022-08-07T16:36:18.315Z,28.10
2022-08-07T16:41:41.757Z,28.50
2022-08-07T16:47:50.909Z,27.90
2022-08-07T16:52:55.698Z,27.90
2022-08-07T16:58:08.096Z,28.20
2022-08-07T17:03:57.884Z,28.30
2022-08-07T17:09:09.442Z,28.30
2022-08-07T17:14:35.836Z,28.00
2022-08-07T17:20:01.832Z,28.00
2022-08-07T17:25:47.717Z,27.90
2022-08-07T17:30:58.596Z,27.90
2022-08-07T17:36:11.999Z,27.70
2022-08-07T17:42:04.655Z,27.40
2022-08-07T17:47:04.306Z,27.50
2022-08-07T17:52:19.396Z,27.30
2022-08-07T17:57:58.864Z,27.20
2022-08-07T18:04:03.964Z,27.00
2022-08-07T18:09:05.399Z,27.00
2022-08-07T18:14:31.301Z,26.80
2022-08-07T18:21:10.478Z,26.80
2022-08-07T18:25:19.361Z,26.60
2022-08-07T18:30:38.793Z,26.40
2022-08-07T18:36:32.835Z,26.10
2022-08-07T18:41:50.531Z,26.00
2022-08-07T18:47:22.581Z,25.70
2022-08-07T18:53:12.625Z,25.30
2022-08-07T18:58:44.133Z,24.70
2022-08-07T19:04:14.625Z,24.60
2022-08-07T19:09:56.322Z,24.20
2022-08-07T19:16:04.559Z,24.10
2022-08-07T19:21:44.009Z,23.90
2022-08-07T19:28:28.293Z,23.70
2022-08-07T19:32:26.574Z,23.50
2022-08-07T19:37:56.918Z,23.10
2022-08-07T19:42:57.656Z,22.80
2022-08-07T19:48:00.302Z,22.60
2022-08-07T19:54:33.334Z,22.50
2022-08-07T19:58:34.376Z,22.30
2022-08-07T20:03:37.219Z,22.00
2022-08-07T20:08:48.712Z,22.00
2022-08-07T20:13:56.456Z,21.90
2022-08-07T20:19:01.200Z,21.90
2022-08-07T20:24:12.160Z,22.00
2022-08-07T20:29:48.274Z,21.90
2022-08-07T20:34:50.874Z,22.00
2022-08-07T20:40:04.223Z,22.00
2022-08-07T20:45:32.621Z,22.00
2022-08-07T20:50:31.720Z,22.00
2022-08-07T20:55:37.235Z,21.90
2022-08-07T21:00:46.037Z,21.70
2022-08-07T21:05:56.136Z,21.70
2022-08-07T21:11:01.671Z,21.70
2022-08-07T21:16:06.174Z,21.70
2022-08-07T21:21:09.044Z,21.70
2022-08-07T21:26:20.431Z,21.80
2022-08-07T21:32:42.582Z,21.70
2022-08-07T21:37:25.820Z,21.70
2022-08-07T21:42:49.534Z,21.70
2022-08-07T21:48:26.849Z,21.60
2022-08-07T21:53:37.134Z,21.70
2022-08-07T21:59:15.368Z,21.70
2022-08-07T22:04:23.188Z,21.70
2022-08-07T22:09:38.178Z,21.60
2022-08-07T22:16:41.561Z,21.50
2022-08-07T22:20:56.691Z,21.40
2022-08-07T22:26:06.257Z,21.40
2022-08-07T22:31:59.035Z,21.30
2022-08-07T22:36:59.107Z,21.40
2022-08-07T22:42:18.996Z,21.20
2022-08-07T22:47:38.266Z,21.20
2022-08-07T22:52:58.582Z,21.10
2022-08-07T22:58:38.196Z,21.10
2022-08-07T23:04:03.404Z,21.00
2022-08-07T23:10:04.159Z,21.00
2022-08-07T23:16:04.854Z,21.00
2022-08-07T23:21:08.147Z,21.00
2022-08-07T23:26:18.282Z,20.80
2022-08-07T23:32:48.870Z,20.90
2022-08-07T23:38:01.127Z,20.70
2022-08-07T23:43:38.005Z,20.70
2022-08-07T23:48:58.617Z,21.00
2022-08-07T23:54:36.065Z,20.70
